createdAt,value
2019-03-12T00:00:34.332Z,69.60
2019-03-12T00:03:02.981Z,69.90
2019-03-12T00:05:31.697Z,71.30
2019-03-12T00:08:00.382Z,70.90
2019-03-12T00:10:29.133Z,69.70
2019-03-12T00:15:26.337Z,70.80
2019-03-12T00:17:55.165Z,70.40
2019-03-12T00:20:23.849Z,70.10
2019-03-12T00:22:52.539Z,70.20
2019-03-12T00:25:21.298Z,69.90
2019-03-12T00:27:50.013Z,70.40
2019-03-12T00:30:18.796Z,70.00
2019-03-12T00:32:48.239Z,68.10
2019-03-12T00:37:45.307Z,67.80
2019-03-12T00:40:14.021Z,68.00
2019-03-12T00:42:42.676Z,67.40
2019-03-12T00:45:11.448Z,68.30
2019-03-12T00:47:40.096Z,68.80
2019-03-12T00:50:08.844Z,68.10
2019-03-12T00:52:37.551Z,68.00
2019-03-12T00:55:06.239Z,75.50
2019-03-12T01:00:03.380Z,67.50
2019-03-12T01:02:32.172Z,67.60
2019-03-12T01:05:01.114Z,67.90
2019-03-12T01:07:29.760Z,67.20
2019-03-12T01:09:58.425Z,66.90
2019-03-12T01:12:27.128Z,67.70
2019-03-12T01:14:55.804Z,67.80
2019-03-12T01:17:24.473Z,70.70
2019-03-12T01:22:21.456Z,65.70
2019-03-12T01:24:50.109Z,66.60
2019-03-12T01:27:18.847Z,67.10
2019-03-12T01:29:47.538Z,66.60
2019-03-12T01:32:16.197Z,66.50
2019-03-12T01:34:44.873Z,66.60
2019-03-12T01:37:13.558Z,65.40
2019-03-12T01:42:10.957Z,65.20
2019-03-12T01:44:39.640Z,65.70
2019-03-12T01:47:08.321Z,66.20
2019-03-12T01:49:37.499Z,65.80
2019-03-12T01:52:06.225Z,65.80
2019-03-12T01:54:34.901Z,66.00
2019-03-12T01:57:03.588Z,66.90
2019-03-12T01:59:32.252Z,65.30
2019-03-12T02:04:29.247Z,67.00
2019-03-12T02:06:57.893Z,67.80
2019-03-12T02:09:26.622Z,67.70
2019-03-12T02:11:55.277Z,67.80
2019-03-12T02:14:26.255Z,68.70
2019-03-12T02:16:55.018Z,68.80
2019-03-12T02:19:23.671Z,68.40
2019-03-12T02:21:52.383Z,66.10
2019-03-12T02:26:49.321Z,65.90
2019-03-12T02:29:18.008Z,67.20
2019-03-12T02:31:46.685Z,66.90
2019-03-12T02:34:15.342Z,66.10
2019-03-12T02:36:44.354Z,67.00
2019-03-12T02:39:13.063Z,66.10
2019-03-12T02:41:41.721Z,66.70
2019-03-12T02:44:10.662Z,65.00
2019-03-12T02:49:09.812Z,64.30
2019-03-12T02:51:42.461Z,65.30
2019-03-12T02:54:11.133Z,66.20
2019-03-12T02:56:39.933Z,65.90
2019-03-12T02:59:08.606Z,65.90
2019-03-12T03:01:37.573Z,65.70
2019-03-12T03:04:06.229Z,64.60
2019-03-12T03:06:41.503Z,85.40
2019-03-12T03:09:10.183Z,65.80
2019-03-12T03:11:38.905Z,65.80
2019-03-12T03:14:46.164Z,65.60
2019-03-12T03:17:16.344Z,65.60
2019-03-12T03:22:13.480Z,64.60
2019-03-12T03:24:42.128Z,65.30
2019-03-12T03:27:10.785Z,64.90
2019-03-12T03:29:39.450Z,65.30
2019-03-12T03:32:08.132Z,64.00
2019-03-12T03:37:05.125Z,63.70
2019-03-12T03:39:33.878Z,64.30
2019-03-12T03:42:02.602Z,63.70
2019-03-12T03:44:31.337Z,63.80
2019-03-12T03:46:59.998Z,64.80
2019-03-12T03:49:28.650Z,64.10
2019-03-12T03:51:57.399Z,62.30
2019-03-12T03:56:54.728Z,62.70
2019-03-12T03:59:23.412Z,63.40
2019-03-12T04:01:52.424Z,64.30
2019-03-12T04:04:21.384Z,64.30
2019-03-12T04:06:50.311Z,64.50
2019-03-12T04:09:18.979Z,65.10
2019-03-12T04:11:47.643Z,64.20
2019-03-12T04:14:16.298Z,63.30
2019-03-12T04:19:13.374Z,63.20
2019-03-12T04:21:42.236Z,64.50
2019-03-12T04:24:10.902Z,64.30
2019-03-12T04:26:39.567Z,63.90
2019-03-12T04:29:08.241Z,63.60
2019-03-12T04:31:37.037Z,64.30
2019-03-12T04:34:23.125Z,64.90
2019-03-12T04:39:20.950Z,63.80
2019-03-12T04:41:49.630Z,64.40
2019-03-12T04:44:18.331Z,64.40
2019-03-12T04:46:46.977Z,63.90
2019-03-12T04:49:15.692Z,63.20
2019-03-12T04:51:44.353Z,63.60
2019-03-12T04:54:13.164Z,63.10
2019-03-12T04:59:10.571Z,62.50
2019-03-12T05:01:39.610Z,63.00
2019-03-12T05:04:08.320Z,63.50
2019-03-12T05:06:38.368Z,63.20
2019-03-12T05:09:08.046Z,63.30
2019-03-12T05:11:37.160Z,62.80
2019-03-12T05:14:22.956Z,62.90
2019-03-12T05:16:52.822Z,62.40
2019-03-12T05:19:21.760Z,61.60
2019-03-12T05:24:19.202Z,62.00
2019-03-12T05:26:48.089Z,62.90
2019-03-12T05:29:16.753Z,63.30
2019-03-12T05:31:45.449Z,63.40
2019-03-12T05:34:14.104Z,63.80
2019-03-12T05:36:43.130Z,64.90
2019-03-12T05:39:11.833Z,65.00
2019-03-12T05:41:40.504Z,64.90
2019-03-12T05:46:37.414Z,65.70
2019-03-12T05:49:06.086Z,66.40
2019-03-12T05:54:03.045Z,67.20
2019-03-12T05:56:31.997Z,68.10
2019-03-12T05:59:00.647Z,69.00
2019-03-12T06:01:29.327Z,68.90
2019-03-12T06:03:58.021Z,68.10
2019-03-12T06:08:55.041Z,68.60
2019-03-12T06:11:23.719Z,69.30
2019-03-12T06:13:52.394Z,69.60
2019-03-12T06:16:21.373Z,70.00
2019-03-12T06:18:50.116Z,69.70
2019-03-12T06:21:18.773Z,68.90
2019-03-12T06:23:47.544Z,69.90
2019-03-12T06:26:16.305Z,70.00
2019-03-12T06:31:35.432Z,70.40
2019-03-12T06:34:08.427Z,71.80
2019-03-12T06:36:47.978Z,72.90
2019-03-12T06:39:34.383Z,73.60
2019-03-12T06:42:14.553Z,74.00
2019-03-12T06:44:49.844Z,74.90
2019-03-12T06:53:17.580Z,75.90
2019-03-12T06:55:56.712Z,77.30
2019-03-12T06:58:56.766Z,78.40
2019-03-12T07:01:36.574Z,79.20
2019-03-12T07:04:10.491Z,79.60
2019-03-12T07:06:57.027Z,79.00
2019-03-12T07:09:44.258Z,84.50
2019-03-12T07:15:27.119Z,77.50
2019-03-12T07:21:09.637Z,76.70
2019-03-12T07:23:44.517Z,76.60
2019-03-12T07:26:41.138Z,75.90
2019-03-12T07:29:34.804Z,75.60
2019-03-12T07:32:29.119Z,75.60
2019-03-12T07:35:16.952Z,75.80
2019-03-12T07:37:57.200Z,74.90
2019-03-12T07:40:45.029Z,69.20
2019-03-12T07:46:11.596Z,68.80
2019-03-12T07:49:04.516Z,68.70
2019-03-12T07:51:52.294Z,66.90
2019-03-12T07:54:48.925Z,65.70
2019-03-12T07:57:23.859Z,65.80
2019-03-12T07:59:59.397Z,63.70
2019-03-12T08:05:28.573Z,61.20
2019-03-12T08:08:12.769Z,60.00
2019-03-12T08:11:18.770Z,59.70
2019-03-12T08:13:54.884Z,59.70
2019-03-12T08:16:40.999Z,57.90
2019-03-12T08:19:34.649Z,55.40
2019-03-12T08:27:47.608Z,55.50
2019-03-12T08:30:31.657Z,55.50
2019-03-12T08:33:16.873Z,53.00
2019-03-12T08:36:10.683Z,52.80
2019-03-12T08:39:01.228Z,52.90
2019-03-12T08:41:47.644Z,50.70
2019-03-12T08:44:41.483Z,49.10
2019-03-12T08:47:14.362Z,46.90
2019-03-12T08:52:30.327Z,46.40
2019-03-12T08:55:26.953Z,47.00
2019-03-12T08:58:12.799Z,48.30
2019-03-12T09:01:19.037Z,49.50
2019-03-12T09:04:09.648Z,48.20
2019-03-12T09:06:46.766Z,47.00
2019-03-12T09:09:33.552Z,47.60
2019-03-12T09:12:27.682Z,47.50
2019-03-12T09:15:19.435Z,48.10
2019-03-12T09:20:36.713Z,46.50
2019-03-12T09:23:22.495Z,47.00
2019-03-12T09:26:10.304Z,47.50
2019-03-12T09:28:48.234Z,47.20
2019-03-12T09:31:34.661Z,46.90
2019-03-12T09:34:21.288Z,47.60
2019-03-12T09:37:06.415Z,45.10
2019-03-12T09:40:09.577Z,43.80
2019-03-12T09:43:15.598Z,42.00
2019-03-12T09:46:01.924Z,41.10
2019-03-12T09:49:08.119Z,39.10
2019-03-12T09:54:22.632Z,40.30
2019-03-12T09:57:10.370Z,41.30
2019-03-12T09:59:58.070Z,39.20
2019-03-12T10:02:44.811Z,39.60
2019-03-12T10:05:31.704Z,39.30
2019-03-12T10:08:16.461Z,38.80
2019-03-12T10:11:02.922Z,38.70
2019-03-12T10:13:55.501Z,36.90
2019-03-12T10:16:46.582Z,37.30
2019-03-12T10:19:29.226Z,36.10
2019-03-12T10:22:10.214Z,37.10
2019-03-12T10:24:56.753Z,36.40
2019-03-12T10:27:47.822Z,36.50
2019-03-12T10:30:50.991Z,36.80
2019-03-12T10:33:37.173Z,35.30
2019-03-12T10:36:31.990Z,36.30
2019-03-12T10:39:44.907Z,36.60
2019-03-12T10:42:33.157Z,35.30
2019-03-12T10:45:20.883Z,34.60
2019-03-12T10:50:18.118Z,33.90
2019-03-12T10:52:46.770Z,35.70
2019-03-12T10:55:15.428Z,34.50
2019-03-12T10:57:44.329Z,35.50
2019-03-12T11:00:13.108Z,34.60
2019-03-12T11:02:41.764Z,34.10
2019-03-12T11:05:10.431Z,34.30
2019-03-12T11:07:39.104Z,33.20
2019-03-12T11:12:36.823Z,33.00
2019-03-12T11:15:06.060Z,33.60
2019-03-12T11:17:48.400Z,33.70
2019-03-12T11:20:06.619Z,34.70
2019-03-12T11:22:35.347Z,34.30
2019-03-12T11:25:04.213Z,33.50
2019-03-12T11:27:32.844Z,34.00
2019-03-12T11:30:01.493Z,32.30
2019-03-12T11:34:58.494Z,32.10
2019-03-12T11:37:27.141Z,31.80
2019-03-12T11:39:55.849Z,32.20
2019-03-12T11:42:24.488Z,32.80
2019-03-12T11:44:53.222Z,32.20
2019-03-12T11:47:21.897Z,32.70
2019-03-12T11:49:50.621Z,32.10
2019-03-12T11:52:19.383Z,32.90
2019-03-12T11:57:16.453Z,31.80
2019-03-12T11:59:45.192Z,31.70
2019-03-12T12:02:13.978Z,32.00
2019-03-12T12:04:42.708Z,32.40
2019-03-12T12:07:11.649Z,33.00
2019-03-12T12:09:40.683Z,32.90
2019-03-12T12:12:09.385Z,31.50
2019-03-12T12:17:06.395Z,32.90
2019-03-12T12:19:35.137Z,32.20
2019-03-12T12:22:03.790Z,32.60
2019-03-12T12:24:32.487Z,31.00
2019-03-12T12:27:01.156Z,31.40
2019-03-12T12:29:29.813Z,30.80
2019-03-12T12:31:59.114Z,30.90
2019-03-12T12:34:28.865Z,32.10
2019-03-12T12:39:27.732Z,30.90
2019-03-12T12:41:56.389Z,30.30
2019-03-12T12:44:25.054Z,29.70
2019-03-12T12:46:54.051Z,30.10
2019-03-12T12:49:22.701Z,30.60
2019-03-12T12:51:51.354Z,31.30
2019-03-12T12:54:20.100Z,31.90
2019-03-12T12:56:48.741Z,31.40
2019-03-12T13:01:45.754Z,29.30
2019-03-12T13:04:14.400Z,29.70
2019-03-12T13:06:43.117Z,29.30
2019-03-12T13:09:11.853Z,29.30
2019-03-12T13:11:40.497Z,29.30
2019-03-12T13:14:09.518Z,28.40
2019-03-12T13:16:38.177Z,29.20
2019-03-12T13:19:07.138Z,28.40
2019-03-12T13:24:04.064Z,28.30
2019-03-12T13:26:33.163Z,29.30
2019-03-12T13:29:02.063Z,29.30
2019-03-12T13:31:30.707Z,29.10
2019-03-12T13:33:59.358Z,30.50
2019-03-12T13:36:28.065Z,29.60
2019-03-12T13:38:56.727Z,27.90
2019-03-12T13:43:53.881Z,27.70
2019-03-12T13:46:22.610Z,27.90
2019-03-12T13:48:51.266Z,28.10
2019-03-12T13:51:20.453Z,28.40
2019-03-12T13:53:49.172Z,28.30
2019-03-12T13:56:18.350Z,28.80
2019-03-12T13:58:47.001Z,30.00
2019-03-12T14:01:15.749Z,28.30
2019-03-12T14:06:12.979Z,27.90
2019-03-12T14:08:41.696Z,28.60
2019-03-12T14:11:10.336Z,28.90
2019-03-12T14:13:38.982Z,28.80
2019-03-12T14:16:07.629Z,28.20
2019-03-12T14:18:36.281Z,27.90
2019-03-12T14:21:10.854Z,28.10
2019-03-12T14:23:42.141Z,27.40
2019-03-12T14:28:39.152Z,27.30
2019-03-12T14:31:07.804Z,27.90
2019-03-12T14:33:36.448Z,28.30
2019-03-12T14:36:05.124Z,27.90
2019-03-12T14:38:34.603Z,28.60
2019-03-12T14:41:03.261Z,28.60
2019-03-12T14:43:31.929Z,28.70
2019-03-12T14:48:37.946Z,27.60
2019-03-12T14:51:10.273Z,28.20
2019-03-12T14:53:39.465Z,28.10
2019-03-12T14:56:08.123Z,28.50
2019-03-12T14:58:36.785Z,27.90
2019-03-12T15:01:05.788Z,28.40
2019-03-12T15:03:34.501Z,32.70
2019-03-12T15:08:31.474Z,26.40
2019-03-12T15:11:00.132Z,26.60
2019-03-12T15:13:28.785Z,26.80
2019-03-12T15:15:57.426Z,26.90
2019-03-12T15:18:26.082Z,27.00
2019-03-12T15:20:54.767Z,27.00
2019-03-12T15:23:23.462Z,26.90
2019-03-12T15:28:20.431Z,27.10
2019-03-12T15:30:49.067Z,27.00
2019-03-12T15:33:19.118Z,27.00
2019-03-12T15:35:47.765Z,27.20
2019-03-12T15:38:16.405Z,27.30
2019-03-12T15:40:45.063Z,27.80
2019-03-12T15:43:13.756Z,28.60
2019-03-12T15:45:42.449Z,28.60
2019-03-12T15:50:39.470Z,28.50
2019-03-12T15:53:08.150Z,29.30
2019-03-12T15:55:36.789Z,29.30
2019-03-12T15:58:05.540Z,28.80
2019-03-12T16:00:34.253Z,29.00
2019-03-12T16:03:02.944Z,28.70
2019-03-12T16:05:31.603Z,28.30
2019-03-12T16:08:00.312Z,28.60
2019-03-12T16:12:57.382Z,29.10
2019-03-12T16:15:26.038Z,29.30
2019-03-12T16:17:54.697Z,29.10
2019-03-12T16:20:23.408Z,29.80
2019-03-12T16:22:52.125Z,30.00
2019-03-12T16:25:20.802Z,30.10
2019-03-12T16:27:49.458Z,30.40
2019-03-12T16:30:19.216Z,31.50
2019-03-12T16:35:16.545Z,30.20
2019-03-12T16:37:46.558Z,30.70
2019-03-12T16:40:15.290Z,31.30
2019-03-12T16:42:43.946Z,31.00
2019-03-12T16:45:12.641Z,31.40
2019-03-12T16:47:41.297Z,31.20
2019-03-12T16:50:09.993Z,31.80
2019-03-12T16:52:38.669Z,31.30
2019-03-12T16:57:35.602Z,31.50
2019-03-12T17:00:08.423Z,31.50
2019-03-12T17:02:34.967Z,32.40
2019-03-12T17:05:04.005Z,32.50
2019-03-12T17:07:33.364Z,31.90
2019-03-12T17:10:02.004Z,32.40
2019-03-12T17:12:30.678Z,32.40
2019-03-12T17:14:59.329Z,32.00
2019-03-12T17:19:56.417Z,31.90
2019-03-12T17:22:25.077Z,32.40
2019-03-12T17:24:53.763Z,32.90
2019-03-12T17:27:22.425Z,32.90
2019-03-12T17:29:51.388Z,32.80
2019-03-12T17:32:20.316Z,32.90
2019-03-12T17:34:48.962Z,32.80
2019-03-12T17:39:46.253Z,32.30
2019-03-12T17:42:15.253Z,33.00
2019-03-12T17:44:43.895Z,33.80
2019-03-12T17:47:12.639Z,33.70
2019-03-12T17:49:41.294Z,32.80
2019-03-12T17:52:09.950Z,33.60
2019-03-12T17:54:38.601Z,33.90
2019-03-12T17:57:07.245Z,34.10
2019-03-12T18:02:04.249Z,34.30
2019-03-12T18:04:32.971Z,34.80
2019-03-12T18:07:02.173Z,33.90
2019-03-12T18:09:31.027Z,33.50
2019-03-12T18:11:59.715Z,33.50
2019-03-12T18:14:28.369Z,34.30
2019-03-12T18:16:57.004Z,34.70
2019-03-12T18:19:25.732Z,33.70
2019-03-12T18:24:22.854Z,33.90
2019-03-12T18:26:51.780Z,34.20
2019-03-12T18:29:20.819Z,34.40
2019-03-12T18:31:49.599Z,34.20
2019-03-12T18:34:18.295Z,34.80
2019-03-12T18:36:46.940Z,34.90
2019-03-12T18:39:18.742Z,34.60
2019-03-12T18:41:47.522Z,34.70
2019-03-12T18:46:44.612Z,34.30
2019-03-12T18:49:13.276Z,34.70
2019-03-12T18:51:41.934Z,35.10
2019-03-12T18:54:10.930Z,34.10
2019-03-12T18:56:39.632Z,34.70
2019-03-12T18:59:08.321Z,34.70
2019-03-12T19:04:05.313Z,34.10
2019-03-12T19:06:34.279Z,34.70
2019-03-12T19:09:04.138Z,34.90
2019-03-12T19:11:37.667Z,34.50
2019-03-12T19:14:03.349Z,33.90
2019-03-12T19:16:33.062Z,34.20
2019-03-12T19:19:02.102Z,33.70
2019-03-12T19:21:30.886Z,33.60
2019-03-12T19:26:28.153Z,33.40
2019-03-12T19:28:56.867Z,33.80
2019-03-12T19:31:45.919Z,33.50
2019-03-12T19:34:18.197Z,33.60
2019-03-12T19:36:47.066Z,33.30
2019-03-12T19:39:19.125Z,33.90
2019-03-12T19:41:47.885Z,33.50
2019-03-12T19:44:16.697Z,32.40
2019-03-12T19:49:13.906Z,32.70
2019-03-12T19:51:42.577Z,32.70
2019-03-12T19:54:11.229Z,33.20
2019-03-12T19:56:39.875Z,32.90
2019-03-12T19:59:08.513Z,33.20
2019-03-12T20:01:37.213Z,33.40
2019-03-12T20:04:05.908Z,32.90
2019-03-12T20:06:34.664Z,33.30
2019-03-12T20:12:02.205Z,31.70
2019-03-12T20:15:20.566Z,32.30
2019-03-12T20:18:55.037Z,31.70
2019-03-12T20:22:17.511Z,31.60
2019-03-12T20:25:29.427Z,31.60
2019-03-12T20:28:57.795Z,31.00
2019-03-12T20:32:01.540Z,31.80
2019-03-12T20:35:06.453Z,32.20
2019-03-12T20:38:15.515Z,31.20
2019-03-12T20:41:21.677Z,31.30
2019-03-12T20:44:45.925Z,37.90
2019-03-12T20:51:01.250Z,30.70
2019-03-12T20:54:22.592Z,31.20
2019-03-12T20:57:28.476Z,30.50
2019-03-12T21:00:47.929Z,30.40
2019-03-12T21:04:13.417Z,29.70
2019-03-12T21:07:25.185Z,29.70
2019-03-12T21:10:34.079Z,30.10
2019-03-12T21:13:50.370Z,29.90
2019-03-12T21:17:02.535Z,29.60
2019-03-12T21:20:20.488Z,30.00
2019-03-12T21:23:03.227Z,30.50
2019-03-12T21:26:22.290Z,30.20
2019-03-12T21:29:41.546Z,30.20
2019-03-12T21:32:10.724Z,30.40
2019-03-12T21:34:39.374Z,30.00
2019-03-12T21:37:08.365Z,30.10
2019-03-12T21:39:55.185Z,29.80
2019-03-12T21:42:16.171Z,29.80
2019-03-12T21:44:45.157Z,29.50
2019-03-12T21:47:21.611Z,29.50
2019-03-12T21:52:26.063Z,29.60
2019-03-12T21:57:23.053Z,29.40
2019-03-12T21:59:52.917Z,29.70
2019-03-12T22:02:21.653Z,29.30
2019-03-12T22:04:50.342Z,29.10
2019-03-12T22:07:19.021Z,28.90
2019-03-12T22:09:47.719Z,29.40
2019-03-12T22:12:16.400Z,28.70
2019-03-12T22:17:13.468Z,28.20
2019-03-12T22:19:42.172Z,28.80
2019-03-12T22:22:28.524Z,28.50
2019-03-12T22:25:00.562Z,29.30
2019-03-12T22:27:29.370Z,29.00
2019-03-12T22:30:09.779Z,28.70
2019-03-12T22:32:40.647Z,28.90
2019-03-12T22:35:11.455Z,29.10
2019-03-12T22:37:44.774Z,29.20
2019-03-12T22:42:45.026Z,29.30
2019-03-12T22:45:14.011Z,29.20
2019-03-12T22:47:43.167Z,28.90
2019-03-12T22:50:12.298Z,28.80
2019-03-12T22:52:41.748Z,29.10
2019-03-12T22:55:14.301Z,29.00
2019-03-12T22:57:43.481Z,28.70
2019-03-12T23:00:12.606Z,29.20
2019-03-12T23:05:10.315Z,28.90
2019-03-12T23:07:42.050Z,28.10
2019-03-12T23:10:11.256Z,28.70
2019-03-12T23:12:40.258Z,29.10
2019-03-12T23:15:10.729Z,29.60
2019-03-12T23:17:39.612Z,29.70
2019-03-12T23:20:09.945Z,29.80
2019-03-12T23:22:39.071Z,29.40
2019-03-12T23:25:07.943Z,29.70
2019-03-12T23:30:07.157Z,29.90
2019-03-12T23:32:37.648Z,30.50
2019-03-12T23:35:06.859Z,30.80
2019-03-12T23:37:35.610Z,31.40
2019-03-12T23:40:05.875Z,31.30
2019-03-12T23:42:34.894Z,30.70
2019-03-12T23:45:06.514Z,30.70
2019-03-12T23:47:35.488Z,30.00
2019-03-12T23:55:02.094Z,30.20
2019-03-12T23:57:32.210Z,30.30
